sensor_id;sensor_type;location;lat;lon;timestamp;P1;durP1;ratioP1;P2;durP2;ratioP2
85291;SDS011;76128;47.194;14.662;2024-03-08T00:01:09;13.52;;;6.00;;
85291;SDS011;76128;47.194;14.662;2024-03-08T00:03:35;12.20;;;5.90;;
85291;SDS011;76128;47.194;14.662;2024-03-08T00:06:00;12.88;;;5.88;;
85291;SDS011;76128;47.194;14.662;2024-03-08T00:08:26;13.90;;;6.95;;
85291;SDS011;76128;47.194;14.662;2024-03-08T00:10:52;12.45;;;5.85;;
85291;SDS011;76128;47.194;14.662;2024-03-08T00:13:17;12.98;;;6.47;;
85291;SDS011;76128;47.194;14.662;2024-03-08T00:15:43;9.65;;;5.20;;
85291;SDS011;76128;47.194;14.662;2024-03-08T00:18:08;12.10;;;5.75;;
85291;SDS011;76128;47.194;14.662;2024-03-08T00:20:34;14.45;;;6.32;;
85291;SDS011;76128;47.194;14.662;2024-03-08T00:22:59;12.23;;;5.40;;
85291;SDS011;76128;47.194;14.662;2024-03-08T00:25:25;13.00;;;6.18;;
85291;SDS011;76128;47.194;14.662;2024-03-08T00:27:50;11.50;;;5.90;;
85291;SDS011;76128;47.194;14.662;2024-03-08T00:30:16;13.35;;;6.25;;
85291;SDS011;76128;47.194;14.662;2024-03-08T00:32:41;10.93;;;5.72;;
85291;SDS011;76128;47.194;14.662;2024-03-08T00:35:07;12.52;;;5.75;;
85291;SDS011;76128;47.194;14.662;2024-03-08T00:37:33;12.00;;;6.15;;
85291;SDS011;76128;47.194;14.662;2024-03-08T00:39:59;13.20;;;6.13;;
85291;SDS011;76128;47.194;14.662;2024-03-08T00:42:25;12.63;;;5.80;;
85291;SDS011;76128;47.194;14.662;2024-03-08T00:44:50;12.98;;;6.43;;
85291;SDS011;76128;47.194;14.662;2024-03-08T00:47:16;10.95;;;5.72;;
85291;SDS011;76128;47.194;14.662;2024-03-08T00:49:42;12.45;;;6.25;;
85291;SDS011;76128;47.194;14.662;2024-03-08T00:52:07;13.77;;;6.70;;
85291;SDS011;76128;47.194;14.662;2024-03-08T00:54:34;14.57;;;6.20;;
85291;SDS011;76128;47.194;14.662;2024-03-08T00:57:01;13.63;;;6.03;;
85291;SDS011;76128;47.194;14.662;2024-03-08T00:59:28;14.98;;;6.30;;
85291;SDS011;76128;47.194;14.662;2024-03-08T01:01:54;15.52;;;6.35;;
85291;SDS011;76128;47.194;14.662;2024-03-08T01:04:19;13.00;;;5.80;;
85291;SDS011;76128;47.194;14.662;2024-03-08T01:06:46;11.60;;;5.90;;
85291;SDS011;76128;47.194;14.662;2024-03-08T01:09:12;11.00;;;5.45;;
85291;SDS011;76128;47.194;14.662;2024-03-08T01:11:38;13.07;;;5.47;;
85291;SDS011;76128;47.194;14.662;2024-03-08T01:14:05;11.38;;;4.72;;
85291;SDS011;76128;47.194;14.662;2024-03-08T01:16:30;13.20;;;4.90;;
85291;SDS011;76128;47.194;14.662;2024-03-08T01:18:58;11.32;;;5.20;;
85291;SDS011;76128;47.194;14.662;2024-03-08T01:21:24;14.02;;;5.75;;
85291;SDS011;76128;47.194;14.662;2024-03-08T01:23:49;11.77;;;5.53;;
85291;SDS011;76128;47.194;14.662;2024-03-08T01:26:15;10.75;;;5.70;;
85291;SDS011;76128;47.194;14.662;2024-03-08T01:28:41;10.57;;;5.57;;
85291;SDS011;76128;47.194;14.662;2024-03-08T01:31:06;11.93;;;5.93;;
85291;SDS011;76128;47.194;14.662;2024-03-08T01:33:32;13.88;;;6.18;;
85291;SDS011;76128;47.194;14.662;2024-03-08T01:35:58;12.00;;;5.82;;
85291;SDS011;76128;47.194;14.662;2024-03-08T01:38:23;14.77;;;6.35;;
85291;SDS011;76128;47.194;14.662;2024-03-08T01:40:49;12.57;;;5.38;;
85291;SDS011;76128;47.194;14.662;2024-03-08T01:43:22;13.27;;;5.53;;
85291;SDS011;76128;47.194;14.662;2024-03-08T01:45:50;14.20;;;5.85;;
85291;SDS011;76128;47.194;14.662;2024-03-08T01:48:16;14.55;;;6.55;;
85291;SDS011;76128;47.194;14.662;2024-03-08T01:50:43;11.38;;;6.00;;
85291;SDS011;76128;47.194;14.662;2024-03-08T01:53:09;13.90;;;6.68;;
85291;SDS011;76128;47.194;14.662;2024-03-08T01:55:37;14.50;;;6.85;;
85291;SDS011;76128;47.194;14.662;2024-03-08T01:58:03;12.65;;;6.20;;
85291;SDS011;76128;47.194;14.662;2024-03-08T02:00:30;13.15;;;6.47;;
85291;SDS011;76128;47.194;14.662;2024-03-08T02:02:55;14.45;;;6.30;;
85291;SDS011;76128;47.194;14.662;2024-03-08T02:05:22;12.13;;;5.95;;
85291;SDS011;76128;47.194;14.662;2024-03-08T02:07:48;15.07;;;5.97;;
85291;SDS011;76128;47.194;14.662;2024-03-08T02:10:14;12.68;;;6.28;;
85291;SDS011;76128;47.194;14.662;2024-03-08T02:12:40;14.05;;;6.18;;
85291;SDS011;76128;47.194;14.662;2024-03-08T02:15:06;13.27;;;6.30;;
85291;SDS011;76128;47.194;14.662;2024-03-08T02:17:32;13.65;;;6.60;;
85291;SDS011;76128;47.194;14.662;2024-03-08T02:19:59;14.35;;;6.70;;
85291;SDS011;76128;47.194;14.662;2024-03-08T02:22:30;11.45;;;5.88;;
85291;SDS011;76128;47.194;14.662;2024-03-08T02:24:58;17.13;;;6.68;;
85291;SDS011;76128;47.194;14.662;2024-03-08T02:27:24;11.55;;;6.05;;
85291;SDS011;76128;47.194;14.662;2024-03-08T02:29:56;13.70;;;6.88;;
85291;SDS011;76128;47.194;14.662;2024-03-08T02:32:24;12.90;;;6.43;;
85291;SDS011;76128;47.194;14.662;2024-03-08T02:34:50;13.25;;;6.28;;
85291;SDS011;76128;47.194;14.662;2024-03-08T02:37:16;13.40;;;6.30;;
85291;SDS011;76128;47.194;14.662;2024-03-08T02:39:42;13.52;;;6.75;;
85291;SDS011;76128;47.194;14.662;2024-03-08T02:42:08;17.05;;;7.93;;
85291;SDS011;76128;47.194;14.662;2024-03-08T02:44:33;15.88;;;7.18;;
85291;SDS011;76128;47.194;14.662;2024-03-08T02:46:59;14.68;;;6.80;;
85291;SDS011;76128;47.194;14.662;2024-03-08T02:49:25;13.10;;;5.63;;
85291;SDS011;76128;47.194;14.662;2024-03-08T02:51:52;14.45;;;6.85;;
85291;SDS011;76128;47.194;14.662;2024-03-08T02:54:18;14.88;;;7.00;;
85291;SDS011;76128;47.194;14.662;2024-03-08T02:56:44;17.48;;;8.38;;
85291;SDS011;76128;47.194;14.662;2024-03-08T02:59:11;16.45;;;7.18;;
85291;SDS011;76128;47.194;14.662;2024-03-08T03:01:38;14.27;;;6.55;;
85291;SDS011;76128;47.194;14.662;2024-03-08T03:04:04;15.93;;;6.43;;
85291;SDS011;76128;47.194;14.662;2024-03-08T03:06:29;14.10;;;6.65;;
85291;SDS011;76128;47.194;14.662;2024-03-08T03:08:56;12.95;;;5.85;;
85291;SDS011;76128;47.194;14.662;2024-03-08T03:11:23;15.23;;;6.57;;
85291;SDS011;76128;47.194;14.662;2024-03-08T03:13:48;15.70;;;6.65;;
85291;SDS011;76128;47.194;14.662;2024-03-08T03:16:20;13.93;;;6.30;;
85291;SDS011;76128;47.194;14.662;2024-03-08T03:18:46;13.95;;;6.65;;
85291;SDS011;76128;47.194;14.662;2024-03-08T03:21:12;14.63;;;6.03;;
85291;SDS011;76128;47.194;14.662;2024-03-08T03:23:38;13.57;;;6.10;;
85291;SDS011;76128;47.194;14.662;2024-03-08T03:26:10;14.55;;;7.53;;
85291;SDS011;76128;47.194;14.662;2024-03-08T03:28:38;13.93;;;7.00;;
85291;SDS011;76128;47.194;14.662;2024-03-08T03:31:06;13.45;;;6.22;;
85291;SDS011;76128;47.194;14.662;2024-03-08T03:33:32;12.60;;;6.60;;
85291;SDS011;76128;47.194;14.662;2024-03-08T03:35:59;12.77;;;6.63;;
85291;SDS011;76128;47.194;14.662;2024-03-08T03:38:26;17.00;;;6.63;;
85291;SDS011;76128;47.194;14.662;2024-03-08T03:40:53;15.65;;;6.35;;
85291;SDS011;76128;47.194;14.662;2024-03-08T03:43:22;15.20;;;7.13;;
85291;SDS011;76128;47.194;14.662;2024-03-08T03:45:48;13.98;;;6.28;;
85291;SDS011;76128;47.194;14.662;2024-03-08T03:48:14;13.85;;;6.80;;
85291;SDS011;76128;47.194;14.662;2024-03-08T03:50:40;13.85;;;6.60;;
85291;SDS011;76128;47.194;14.662;2024-03-08T03:53:06;13.02;;;6.90;;
85291;SDS011;76128;47.194;14.662;2024-03-08T03:55:35;18.25;;;7.30;;
85291;SDS011;76128;47.194;14.662;2024-03-08T03:58:02;12.35;;;6.20;;
85291;SDS011;76128;47.194;14.662;2024-03-08T04:00:28;12.55;;;6.82;;
85291;SDS011;76128;47.194;14.662;2024-03-08T04:02:53;12.70;;;6.00;;
85291;SDS011;76128;47.194;14.662;2024-03-08T04:05:20;15.63;;;7.22;;
85291;SDS011;76128;47.194;14.662;2024-03-08T04:07:45;13.52;;;6.75;;
85291;SDS011;76128;47.194;14.662;2024-03-08T04:10:11;15.05;;;6.40;;
85291;SDS011;76128;47.194;14.662;2024-03-08T04:12:37;12.75;;;6.22;;
85291;SDS011;76128;47.194;14.662;2024-03-08T04:15:03;15.27;;;5.75;;
85291;SDS011;76128;47.194;14.662;2024-03-08T04:17:30;13.20;;;5.88;;
85291;SDS011;76128;47.194;14.662;2024-03-08T04:19:55;11.52;;;6.63;;
85291;SDS011;76128;47.194;14.662;2024-03-08T04:22:21;12.48;;;5.93;;
85291;SDS011;76128;47.194;14.662;2024-03-08T04:24:46;12.93;;;6.53;;
85291;SDS011;76128;47.194;14.662;2024-03-08T04:27:12;12.30;;;5.55;;
85291;SDS011;76128;47.194;14.662;2024-03-08T04:29:39;14.07;;;6.93;;
85291;SDS011;76128;47.194;14.662;2024-03-08T04:32:05;16.55;;;7.05;;
85291;SDS011;76128;47.194;14.662;2024-03-08T04:34:32;12.75;;;6.43;;
85291;SDS011;76128;47.194;14.662;2024-03-08T04:36:58;14.80;;;7.05;;
85291;SDS011;76128;47.194;14.662;2024-03-08T04:39:24;15.50;;;7.22;;
85291;SDS011;76128;47.194;14.662;2024-03-08T04:41:53;25.90;;;9.90;;
85291;SDS011;76128;47.194;14.662;2024-03-08T04:44:19;27.70;;;11.32;;
85291;SDS011;76128;47.194;14.662;2024-03-08T04:46:45;21.05;;;8.60;;
85291;SDS011;76128;47.194;14.662;2024-03-08T04:49:12;29.25;;;10.27;;
85291;SDS011;76128;47.194;14.662;2024-03-08T04:51:38;13.73;;;6.28;;
85291;SDS011;76128;47.194;14.662;2024-03-08T04:54:03;23.23;;;8.52;;
85291;SDS011;76128;47.194;14.662;2024-03-08T04:56:30;17.77;;;7.90;;
85291;SDS011;76128;47.194;14.662;2024-03-08T04:58:55;17.80;;;7.57;;
85291;SDS011;76128;47.194;14.662;2024-03-08T05:01:21;15.48;;;6.68;;
85291;SDS011;76128;47.194;14.662;2024-03-08T05:03:47;12.70;;;6.00;;
85291;SDS011;76128;47.194;14.662;2024-03-08T05:06:15;13.85;;;6.18;;
85291;SDS011;76128;47.194;14.662;2024-03-08T05:08:41;12.45;;;5.57;;
85291;SDS011;76128;47.194;14.662;2024-03-08T05:11:06;13.55;;;5.90;;
85291;SDS011;76128;47.194;14.662;2024-03-08T05:13:32;13.65;;;5.07;;
85291;SDS011;76128;47.194;14.662;2024-03-08T05:15:59;12.45;;;6.00;;
85291;SDS011;76128;47.194;14.662;2024-03-08T05:18:25;12.27;;;5.40;;
85291;SDS011;76128;47.194;14.662;2024-03-08T05:20:51;11.30;;;5.88;;
85291;SDS011;76128;47.194;14.662;2024-03-08T05:23:17;11.73;;;5.25;;
85291;SDS011;76128;47.194;14.662;2024-03-08T05:25:45;13.02;;;4.90;;
85291;SDS011;76128;47.194;14.662;2024-03-08T05:28:12;9.93;;;5.15;;
85291;SDS011;76128;47.194;14.662;2024-03-08T05:30:38;13.50;;;6.15;;
85291;SDS011;76128;47.194;14.662;2024-03-08T05:33:04;11.80;;;5.32;;
85291;SDS011;76128;47.194;14.662;2024-03-08T05:35:29;11.40;;;5.32;;
85291;SDS011;76128;47.194;14.662;2024-03-08T05:37:55;14.10;;;6.88;;
85291;SDS011;76128;47.194;14.662;2024-03-08T05:40:21;32.25;;;12.05;;
85291;SDS011;76128;47.194;14.662;2024-03-08T05:42:46;37.50;;;13.48;;
85291;SDS011;76128;47.194;14.662;2024-03-08T05:45:12;29.33;;;11.32;;
85291;SDS011;76128;47.194;14.662;2024-03-08T05:47:39;28.45;;;9.75;;
85291;SDS011;76128;47.194;14.662;2024-03-08T05:50:05;37.85;;;12.52;;
85291;SDS011;76128;47.194;14.662;2024-03-08T05:52:32;28.75;;;11.38;;
85291;SDS011;76128;47.194;14.662;2024-03-08T05:54:58;18.48;;;7.25;;
85291;SDS011;76128;47.194;14.662;2024-03-08T05:57:24;21.95;;;7.25;;
85291;SDS011;76128;47.194;14.662;2024-03-08T05:59:49;17.38;;;6.65;;
85291;SDS011;76128;47.194;14.662;2024-03-08T06:02:15;20.02;;;7.72;;
85291;SDS011;76128;47.194;14.662;2024-03-08T06:04:45;14.00;;;6.40;;
85291;SDS011;76128;47.194;14.662;2024-03-08T06:07:12;13.07;;;6.70;;
85291;SDS011;76128;47.194;14.662;2024-03-08T06:09:38;15.18;;;6.35;;
85291;SDS011;76128;47.194;14.662;2024-03-08T06:12:03;12.07;;;5.80;;
85291;SDS011;76128;47.194;14.662;2024-03-08T06:14:31;12.75;;;5.78;;
85291;SDS011;76128;47.194;14.662;2024-03-08T06:16:57;10.75;;;5.85;;
85291;SDS011;76128;47.194;14.662;2024-03-08T06:19:23;10.77;;;5.85;;
85291;SDS011;76128;47.194;14.662;2024-03-08T06:21:48;12.05;;;6.10;;
85291;SDS011;76128;47.194;14.662;2024-03-08T06:24:14;16.30;;;5.75;;
85291;SDS011;76128;47.194;14.662;2024-03-08T06:26:40;12.18;;;6.43;;
85291;SDS011;76128;47.194;14.662;2024-03-08T06:29:06;15.43;;;7.68;;
85291;SDS011;76128;47.194;14.662;2024-03-08T06:31:34;15.43;;;7.57;;
85291;SDS011;76128;47.194;14.662;2024-03-08T06:33:59;13.88;;;6.57;;
85291;SDS011;76128;47.194;14.662;2024-03-08T06:36:25;15.15;;;7.57;;
85291;SDS011;76128;47.194;14.662;2024-03-08T06:38:51;16.55;;;7.25;;
85291;SDS011;76128;47.194;14.662;2024-03-08T06:41:16;14.25;;;7.10;;
85291;SDS011;76128;47.194;14.662;2024-03-08T06:43:42;16.67;;;8.02;;
85291;SDS011;76128;47.194;14.662;2024-03-08T06:46:08;15.43;;;7.32;;
85291;SDS011;76128;47.194;14.662;2024-03-08T06:48:35;15.32;;;7.50;;
85291;SDS011;76128;47.194;14.662;2024-03-08T06:51:02;14.70;;;7.35;;
85291;SDS011;76128;47.194;14.662;2024-03-08T06:53:29;15.35;;;7.05;;
85291;SDS011;76128;47.194;14.662;2024-03-08T06:55:55;15.35;;;7.00;;
85291;SDS011;76128;47.194;14.662;2024-03-08T06:58:20;15.43;;;7.25;;
85291;SDS011;76128;47.194;14.662;2024-03-08T07:00:45;14.55;;;7.15;;
85291;SDS011;76128;47.194;14.662;2024-03-08T07:03:11;16.20;;;7.50;;
85291;SDS011;76128;47.194;14.662;2024-03-08T07:05:42;16.42;;;7.80;;
85291;SDS011;76128;47.194;14.662;2024-03-08T07:08:07;15.02;;;7.30;;
85291;SDS011;76128;47.194;14.662;2024-03-08T07:10:33;15.48;;;8.00;;
85291;SDS011;76128;47.194;14.662;2024-03-08T07:13:00;17.02;;;7.93;;
85291;SDS011;76128;47.194;14.662;2024-03-08T07:15:27;21.52;;;9.05;;
85291;SDS011;76128;47.194;14.662;2024-03-08T07:17:53;17.20;;;7.90;;
85291;SDS011;76128;47.194;14.662;2024-03-08T07:20:19;20.15;;;10.05;;
85291;SDS011;76128;47.194;14.662;2024-03-08T07:22:47;20.52;;;10.20;;
85291;SDS011;76128;47.194;14.662;2024-03-08T07:25:13;15.70;;;8.75;;
85291;SDS011;76128;47.194;14.662;2024-03-08T07:27:52;17.20;;;8.93;;
85291;SDS011;76128;47.194;14.662;2024-03-08T07:30:19;15.57;;;7.82;;
85291;SDS011;76128;47.194;14.662;2024-03-08T07:33:04;19.67;;;8.27;;
85291;SDS011;76128;47.194;14.662;2024-03-08T07:35:32;20.50;;;8.27;;
85291;SDS011;76128;47.194;14.662;2024-03-08T07:37:58;14.52;;;7.25;;
85291;SDS011;76128;47.194;14.662;2024-03-08T07:40:25;16.67;;;7.93;;
85291;SDS011;76128;47.194;14.662;2024-03-08T07:42:51;15.48;;;7.75;;
85291;SDS011;76128;47.194;14.662;2024-03-08T07:45:16;16.70;;;7.82;;
85291;SDS011;76128;47.194;14.662;2024-03-08T07:47:42;15.93;;;7.53;;
85291;SDS011;76128;47.194;14.662;2024-03-08T07:50:08;15.60;;;8.02;;
85291;SDS011;76128;47.194;14.662;2024-03-08T07:52:34;18.90;;;8.82;;
85291;SDS011;76128;47.194;14.662;2024-03-08T07:55:00;18.27;;;8.00;;
85291;SDS011;76128;47.194;14.662;2024-03-08T07:57:26;15.13;;;7.35;;
85291;SDS011;76128;47.194;14.662;2024-03-08T07:59:51;19.45;;;8.32;;
85291;SDS011;76128;47.194;14.662;2024-03-08T08:02:17;16.92;;;9.10;;
85291;SDS011;76128;47.194;14.662;2024-03-08T08:04:43;18.48;;;8.18;;
85291;SDS011;76128;47.194;14.662;2024-03-08T08:07:10;16.80;;;8.20;;
85291;SDS011;76128;47.194;14.662;2024-03-08T08:09:36;19.48;;;8.73;;
85291;SDS011;76128;47.194;14.662;2024-03-08T08:12:03;15.65;;;7.45;;
85291;SDS011;76128;47.194;14.662;2024-03-08T08:14:29;13.85;;;7.05;;
85291;SDS011;76128;47.194;14.662;2024-03-08T08:16:55;12.65;;;6.38;;
85291;SDS011;76128;47.194;14.662;2024-03-08T08:19:22;15.63;;;7.40;;
85291;SDS011;76128;47.194;14.662;2024-03-08T08:21:48;14.85;;;8.00;;
85291;SDS011;76128;47.194;14.662;2024-03-08T08:24:14;17.13;;;7.70;;
85291;SDS011;76128;47.194;14.662;2024-03-08T08:26:39;15.55;;;7.70;;
85291;SDS011;76128;47.194;14.662;2024-03-08T08:29:05;17.48;;;7.88;;
85291;SDS011;76128;47.194;14.662;2024-03-08T08:31:31;18.77;;;9.57;;
85291;SDS011;76128;47.194;14.662;2024-03-08T08:33:57;14.63;;;7.50;;
85291;SDS011;76128;47.194;14.662;2024-03-08T08:36:25;16.48;;;7.95;;
85291;SDS011;76128;47.194;14.662;2024-03-08T08:38:51;16.65;;;8.05;;
85291;SDS011;76128;47.194;14.662;2024-03-08T08:41:19;17.33;;;8.70;;
85291;SDS011;76128;47.194;14.662;2024-03-08T08:43:46;15.50;;;7.07;;
85291;SDS011;76128;47.194;14.662;2024-03-08T08:46:12;16.80;;;7.90;;
85291;SDS011;76128;47.194;14.662;2024-03-08T08:48:41;14.88;;;7.13;;
85291;SDS011;76128;47.194;14.662;2024-03-08T08:51:09;13.43;;;6.97;;
85291;SDS011;76128;47.194;14.662;2024-03-08T08:53:40;15.20;;;7.15;;
85291;SDS011;76128;47.194;14.662;2024-03-08T08:58:33;18.55;;;12.10;;
85291;SDS011;76128;47.194;14.662;2024-03-08T09:00:59;13.45;;;7.15;;
85291;SDS011;76128;47.194;14.662;2024-03-08T09:03:25;13.95;;;6.15;;
85291;SDS011;76128;47.194;14.662;2024-03-08T09:05:52;13.63;;;6.47;;
85291;SDS011;76128;47.194;14.662;2024-03-08T09:08:17;12.10;;;6.13;;
85291;SDS011;76128;47.194;14.662;2024-03-08T09:10:43;16.17;;;8.75;;
85291;SDS011;76128;47.194;14.662;2024-03-08T09:13:09;14.75;;;7.82;;
85291;SDS011;76128;47.194;14.662;2024-03-08T09:15:35;15.20;;;7.30;;
85291;SDS011;76128;47.194;14.662;2024-03-08T09:18:01;13.75;;;6.18;;
85291;SDS011;76128;47.194;14.662;2024-03-08T09:20:27;13.30;;;6.22;;
85291;SDS011;76128;47.194;14.662;2024-03-08T09:22:53;11.80;;;6.47;;
85291;SDS011;76128;47.194;14.662;2024-03-08T09:25:19;11.88;;;5.97;;
85291;SDS011;76128;47.194;14.662;2024-03-08T09:27:45;13.00;;;6.65;;
85291;SDS011;76128;47.194;14.662;2024-03-08T09:30:11;11.70;;;6.32;;
85291;SDS011;76128;47.194;14.662;2024-03-08T09:32:38;15.95;;;7.40;;
85291;SDS011;76128;47.194;14.662;2024-03-08T09:35:04;15.85;;;6.57;;
85291;SDS011;76128;47.194;14.662;2024-03-08T09:37:32;11.70;;;6.30;;
85291;SDS011;76128;47.194;14.662;2024-03-08T09:40:01;12.65;;;5.47;;
85291;SDS011;76128;47.194;14.662;2024-03-08T09:42:30;11.70;;;5.72;;
85291;SDS011;76128;47.194;14.662;2024-03-08T09:44:57;11.40;;;5.70;;
85291;SDS011;76128;47.194;14.662;2024-03-08T09:47:24;12.05;;;6.07;;
85291;SDS011;76128;47.194;14.662;2024-03-08T09:49:52;12.60;;;5.63;;
85291;SDS011;76128;47.194;14.662;2024-03-08T09:52:18;11.00;;;5.68;;
85291;SDS011;76128;47.194;14.662;2024-03-08T09:54:43;10.52;;;5.15;;
85291;SDS011;76128;47.194;14.662;2024-03-08T09:57:09;10.55;;;4.80;;
85291;SDS011;76128;47.194;14.662;2024-03-08T09:59:35;10.80;;;5.15;;
85291;SDS011;76128;47.194;14.662;2024-03-08T10:02:01;8.85;;;5.40;;
85291;SDS011;76128;47.194;14.662;2024-03-08T10:04:30;9.93;;;5.28;;
85291;SDS011;76128;47.194;14.662;2024-03-08T10:07:00;9.77;;;5.63;;
85291;SDS011;76128;47.194;14.662;2024-03-08T10:09:26;8.70;;;5.00;;
85291;SDS011;76128;47.194;14.662;2024-03-08T10:11:56;7.68;;;4.90;;
85291;SDS011;76128;47.194;14.662;2024-03-08T10:14:23;8.23;;;4.95;;
85291;SDS011;76128;47.194;14.662;2024-03-08T10:16:49;9.57;;;5.20;;
85291;SDS011;76128;47.194;14.662;2024-03-08T10:19:15;9.05;;;5.00;;
85291;SDS011;76128;47.194;14.662;2024-03-08T10:21:50;10.95;;;4.80;;
85291;SDS011;76128;47.194;14.662;2024-03-08T10:24:19;9.20;;;4.90;;
85291;SDS011;76128;47.194;14.662;2024-03-08T10:26:45;8.13;;;4.78;;
85291;SDS011;76128;47.194;14.662;2024-03-08T10:29:11;10.90;;;4.97;;
85291;SDS011;76128;47.194;14.662;2024-03-08T10:31:42;9.90;;;5.40;;
85291;SDS011;76128;47.194;14.662;2024-03-08T10:34:09;9.38;;;4.57;;
85291;SDS011;76128;47.194;14.662;2024-03-08T10:36:35;8.50;;;4.68;;
85291;SDS011;76128;47.194;14.662;2024-03-08T10:39:03;10.98;;;5.07;;
85291;SDS011;76128;47.194;14.662;2024-03-08T10:41:28;10.30;;;5.10;;
85291;SDS011;76128;47.194;14.662;2024-03-08T10:44:09;8.95;;;4.63;;
85291;SDS011;76128;47.194;14.662;2024-03-08T10:49:17;10.20;;;4.93;;
85291;SDS011;76128;47.194;14.662;2024-03-08T10:51:43;11.90;;;5.32;;
85291;SDS011;76128;47.194;14.662;2024-03-08T10:54:10;9.82;;;5.45;;
85291;SDS011;76128;47.194;14.662;2024-03-08T10:56:36;8.98;;;4.97;;
85291;SDS011;76128;47.194;14.662;2024-03-08T10:59:02;10.50;;;4.90;;
85291;SDS011;76128;47.194;14.662;2024-03-08T11:01:29;8.38;;;4.43;;
85291;SDS011;76128;47.194;14.662;2024-03-08T11:03:55;8.18;;;4.25;;
85291;SDS011;76128;47.194;14.662;2024-03-08T11:06:31;9.65;;;4.78;;
85291;SDS011;76128;47.194;14.662;2024-03-08T11:12:22;9.13;;;4.32;;
85291;SDS011;76128;47.194;14.662;2024-03-08T11:14:53;9.18;;;4.63;;
85291;SDS011;76128;47.194;14.662;2024-03-08T11:17:25;8.60;;;4.70;;
85291;SDS011;76128;47.194;14.662;2024-03-08T11:19:52;8.05;;;5.10;;
85291;SDS011;76128;47.194;14.662;2024-03-08T11:22:22;8.77;;;4.93;;
85291;SDS011;76128;47.194;14.662;2024-03-08T11:24:52;9.10;;;4.65;;
85291;SDS011;76128;47.194;14.662;2024-03-08T11:27:17;8.40;;;4.50;;
85291;SDS011;76128;47.194;14.662;2024-03-08T11:29:49;7.00;;;4.65;;
85291;SDS011;76128;47.194;14.662;2024-03-08T11:32:27;7.43;;;4.47;;
85291;SDS011;76128;47.194;14.662;2024-03-08T11:34:53;8.15;;;4.70;;
85291;SDS011;76128;47.194;14.662;2024-03-08T11:37:19;10.45;;;5.13;;
85291;SDS011;76128;47.194;14.662;2024-03-08T11:39:55;8.55;;;4.75;;
85291;SDS011;76128;47.194;14.662;2024-03-08T11:42:24;8.32;;;4.63;;
85291;SDS011;76128;47.194;14.662;2024-03-08T11:44:51;10.48;;;4.47;;
85291;SDS011;76128;47.194;14.662;2024-03-08T11:47:17;8.32;;;4.68;;
85291;SDS011;76128;47.194;14.662;2024-03-08T11:49:43;9.05;;;4.78;;
85291;SDS011;76128;47.194;14.662;2024-03-08T11:52:16;7.03;;;3.90;;
85291;SDS011;76128;47.194;14.662;2024-03-08T11:54:43;8.73;;;4.55;;
85291;SDS011;76128;47.194;14.662;2024-03-08T11:57:17;8.65;;;4.30;;
85291;SDS011;76128;47.194;14.662;2024-03-08T11:59:49;7.63;;;4.43;;
85291;SDS011;76128;47.194;14.662;2024-03-08T12:02:18;6.43;;;3.90;;
85291;SDS011;76128;47.194;14.662;2024-03-08T12:04:44;8.95;;;4.72;;
85291;SDS011;76128;47.194;14.662;2024-03-08T12:07:11;10.25;;;4.50;;
85291;SDS011;76128;47.194;14.662;2024-03-08T12:09:42;8.52;;;4.80;;
85291;SDS011;76128;47.194;14.662;2024-03-08T12:12:11;9.38;;;4.18;;
85291;SDS011;76128;47.194;14.662;2024-03-08T12:14:37;9.05;;;4.63;;
85291;SDS011;76128;47.194;14.662;2024-03-08T12:17:03;7.95;;;4.30;;
85291;SDS011;76128;47.194;14.662;2024-03-08T12:19:30;6.82;;;4.20;;
85291;SDS011;76128;47.194;14.662;2024-03-08T12:21:56;7.20;;;4.03;;
85291;SDS011;76128;47.194;14.662;2024-03-08T12:24:21;7.85;;;4.35;;
85291;SDS011;76128;47.194;14.662;2024-03-08T12:26:47;7.00;;;4.30;;
85291;SDS011;76128;47.194;14.662;2024-03-08T12:31:53;7.57;;;4.45;;
85291;SDS011;76128;47.194;14.662;2024-03-08T12:34:20;7.97;;;4.15;;
85291;SDS011;76128;47.194;14.662;2024-03-08T12:36:46;7.38;;;4.18;;
85291;SDS011;76128;47.194;14.662;2024-03-08T12:39:13;10.10;;;4.82;;
85291;SDS011;76128;47.194;14.662;2024-03-08T12:41:41;9.20;;;4.65;;
85291;SDS011;76128;47.194;14.662;2024-03-08T12:44:07;8.73;;;4.60;;
85291;SDS011;76128;47.194;14.662;2024-03-08T12:46:36;7.85;;;4.47;;
85291;SDS011;76128;47.194;14.662;2024-03-08T12:49:08;8.10;;;4.32;;
85291;SDS011;76128;47.194;14.662;2024-03-08T12:51:34;7.95;;;4.32;;
85291;SDS011;76128;47.194;14.662;2024-03-08T12:54:00;10.88;;;4.65;;
85291;SDS011;76128;47.194;14.662;2024-03-08T12:56:30;8.50;;;4.43;;
85291;SDS011;76128;47.194;14.662;2024-03-08T12:58:59;7.85;;;4.07;;
85291;SDS011;76128;47.194;14.662;2024-03-08T13:01:25;8.35;;;4.38;;
85291;SDS011;76128;47.194;14.662;2024-03-08T13:03:52;9.68;;;4.97;;
85291;SDS011;76128;47.194;14.662;2024-03-08T13:06:18;6.97;;;4.13;;
85291;SDS011;76128;47.194;14.662;2024-03-08T13:08:47;8.98;;;5.07;;
85291;SDS011;76128;47.194;14.662;2024-03-08T13:11:13;21.60;;;10.68;;
85291;SDS011;76128;47.194;14.662;2024-03-08T13:13:42;8.82;;;4.63;;
85291;SDS011;76128;47.194;14.662;2024-03-08T13:16:09;17.27;;;9.00;;
85291;SDS011;76128;47.194;14.662;2024-03-08T13:18:36;10.48;;;5.30;;
85291;SDS011;76128;47.194;14.662;2024-03-08T13:21:02;10.88;;;5.30;;
85291;SDS011;76128;47.194;14.662;2024-03-08T13:23:35;9.20;;;4.68;;
85291;SDS011;76128;47.194;14.662;2024-03-08T13:26:11;7.40;;;4.80;;
85291;SDS011;76128;47.194;14.662;2024-03-08T13:28:44;10.35;;;5.25;;
85291;SDS011;76128;47.194;14.662;2024-03-08T13:31:10;9.93;;;4.80;;
85291;SDS011;76128;47.194;14.662;2024-03-08T13:33:36;8.50;;;4.75;;
85291;SDS011;76128;47.194;14.662;2024-03-08T13:36:04;10.30;;;4.97;;
85291;SDS011;76128;47.194;14.662;2024-03-08T13:38:34;11.07;;;6.25;;
85291;SDS011;76128;47.194;14.662;2024-03-08T13:41:01;7.82;;;4.95;;
85291;SDS011;76128;47.194;14.662;2024-03-08T13:43:28;12.27;;;5.38;;
85291;SDS011;76128;47.194;14.662;2024-03-08T13:45:54;11.18;;;5.03;;
85291;SDS011;76128;47.194;14.662;2024-03-08T13:48:20;16.63;;;7.30;;
85291;SDS011;76128;47.194;14.662;2024-03-08T13:50:47;14.07;;;6.47;;
85291;SDS011;76128;47.194;14.662;2024-03-08T13:53:14;15.93;;;7.28;;
85291;SDS011;76128;47.194;14.662;2024-03-08T13:55:40;15.77;;;6.43;;
85291;SDS011;76128;47.194;14.662;2024-03-08T13:58:06;13.98;;;6.13;;
85291;SDS011;76128;47.194;14.662;2024-03-08T14:00:35;9.63;;;5.00;;
85291;SDS011;76128;47.194;14.662;2024-03-08T14:03:01;8.13;;;4.55;;
85291;SDS011;76128;47.194;14.662;2024-03-08T14:05:31;8.18;;;4.68;;
85291;SDS011;76128;47.194;14.662;2024-03-08T14:08:00;8.07;;;4.65;;
85291;SDS011;76128;47.194;14.662;2024-03-08T14:10:28;9.27;;;4.85;;
85291;SDS011;76128;47.194;14.662;2024-03-08T14:12:56;10.38;;;5.45;;
85291;SDS011;76128;47.194;14.662;2024-03-08T14:15:22;10.68;;;5.32;;
85291;SDS011;76128;47.194;14.662;2024-03-08T14:17:54;9.38;;;5.10;;
85291;SDS011;76128;47.194;14.662;2024-03-08T14:20:20;8.38;;;4.95;;
85291;SDS011;76128;47.194;14.662;2024-03-08T14:22:53;8.60;;;5.05;;
85291;SDS011;76128;47.194;14.662;2024-03-08T14:25:22;9.38;;;4.93;;
85291;SDS011;76128;47.194;14.662;2024-03-08T14:27:51;9.50;;;5.05;;
85291;SDS011;76128;47.194;14.662;2024-03-08T14:30:19;9.15;;;5.10;;
85291;SDS011;76128;47.194;14.662;2024-03-08T14:33:03;10.05;;;5.93;;